Метеостанция


АнтоновUKKM 232130Z AUTO 20002MPS 2000 0700SE R15/P2000U FG ///034/// 10/10 Q1020
БориспольUKBB 232130Z 20003MPS 3400 0500SW R36R/P2000N R36L/0500 PRFG NSC 07/07 Q1021 R88/CLRD// TEMPO 0300 FG VV002
Гаврышовка (Винница)UKWW 231900Z 23003MPS 0150 FG VV001 09/09 Q1022 R31/0///65 NOSIG
ДнепропетровскUKDD 232133Z VRB02MPS 0100 0050W R26/0400N FG VV000 09/09 Q1022 R26/090070 NOSIG
ЖуляныUKKK 232130Z 00000MPS 2300 0800S R08/P2000U PRFG NSC 08/08 Q1021 R08/CLRD70 TEMPO 0300 FG SCT004
Запорожье(Мокрая)UKDE 232100Z 24001MPS 0050 FG VV001 10/10 Q1022 R20L/190068 NOSIG
Ивано-ФранковскUKLI 232130Z 00000MPS 0050 FG VV003 06/06 Q1021 NOSIG
Кривой РогUKDR 232130Z 00000MPS 0550 R36/1500D FG VV002 11/11 Q1022 R36/19//60 BECMG 0200 FG VV001
ЛьвовUKLL 232130Z 15002MPS 5000 BR NSC 10/10 Q1020 R13/CLRD// TEMPO 2100 BR
НиколаевUKON 231700Z 00000MPS 0100 FG VV001 11/11 Q1023 R04/190070 NOSIG
ОдессаUKOO 232135Z VRB01MPS 2700 BR OVC003 11/11 Q1022 R34/090060 NOSIG
РовноUKLR 231500Z 34001MPS CAVOK 17/12 Q1021 R29/090070 NOSIG
УжгородUKLU 231600Z 00000MPS 9999 NSC 18/14 Q1020 R10/090070 NOSIG
ХарьковUKHH 232130Z 27003MPS 0350 0300E R25/0800N FG VV001 10/10 Q1021 R25/190079 NOSIG
ЧерновцыUKLN 231930Z 12002MPS 0050 0000SE R15/0200N FG VV001 11/11 Q1022 R15/09//70 NOSIG
Скачать:
Скачать этот файл (Metar_шпаргалка.jpg)Расшифровка METAR[ ]4799 Кб
Вся информация, которая имеется в использовании на сайте и доступная для скачивания, получена исключительно из открытых источников информации сети Интернет, всякое совпадение с данными, имеющими ограничения в доступе, случайное и не является преднамеренным.
^ Наверх